createdAt,value
2022-11-16T00:00:37.593Z,89.39
2022-11-16T00:04:32.178Z,89.66
2022-11-16T00:16:09.072Z,88.52
2022-11-16T00:24:46.754Z,89.47
2022-11-16T00:42:03.911Z,87.47
2022-11-16T01:18:03.473Z,86.53
2022-11-16T01:21:51.073Z,86.53
2022-11-16T02:10:04.955Z,88.56
2022-11-16T02:14:18.314Z,88.56
2022-11-16T02:34:26.679Z,88.37
2022-11-16T02:47:54.239Z,88.64
2022-11-16T03:24:20.408Z,87.86
2022-11-16T03:30:25.453Z,88.43
2022-11-16T03:33:32.510Z,89.02
2022-11-16T07:09:00.441Z,86.77
2022-11-16T07:21:53.843Z,86.97
2022-11-16T07:25:45.644Z,86.85
2022-11-16T07:37:58.721Z,86.99
2022-11-16T07:52:49.631Z,86.16
2022-11-16T07:56:30.591Z,86.17
2022-11-16T07:59:33.191Z,86.21
2022-11-16T08:02:21.635Z,86.07
2022-11-16T08:05:30.155Z,86.62
2022-11-16T08:08:03.475Z,85.79
2022-11-16T08:10:54.033Z,85.05
2022-11-16T08:13:28.473Z,85.23
2022-11-16T08:16:10.512Z,84.97
2022-11-16T08:18:45.313Z,84.44
2022-11-16T08:21:22.836Z,84.39
2022-11-16T08:24:01.474Z,84.93
2022-11-16T08:26:39.976Z,84.99
2022-11-16T08:29:19.196Z,84.88
2022-11-16T08:32:29.758Z,84.59
2022-11-16T08:35:04.659Z,84.81
2022-11-16T08:37:37.827Z,84.26
2022-11-16T08:40:18.313Z,84.49
2022-11-16T08:43:01.084Z,84.42
2022-11-16T08:45:41.235Z,84.14
2022-11-16T08:48:13.592Z,84.33
2022-11-16T08:51:15.418Z,84.30
2022-11-16T08:53:54.634Z,84.47
2022-11-16T08:56:32.487Z,84.73
2022-11-16T08:59:05.236Z,84.46
2022-11-16T09:01:38.639Z,84.20
2022-11-16T09:04:13.031Z,84.08
2022-11-16T09:06:50.735Z,83.67
2022-11-16T09:09:23.922Z,83.74
2022-11-16T09:12:05.913Z,83.87
2022-11-16T09:14:39.950Z,83.21
2022-11-16T09:17:22.962Z,83.14
2022-11-16T09:19:55.999Z,82.71
2022-11-16T09:22:24.779Z,81.67
2022-11-16T09:24:55.631Z,81.85
2022-11-16T09:27:25.681Z,81.69
2022-11-16T09:29:56.512Z,81.72
2022-11-16T09:32:25.766Z,82.16
2022-11-16T09:34:55.112Z,81.56
2022-11-16T09:37:26.721Z,81.36
2022-11-16T09:39:55.948Z,81.54
2022-11-16T09:42:41.528Z,81.25
2022-11-16T09:45:28.247Z,80.92
2022-11-16T09:48:03.450Z,80.69
2022-11-16T09:56:22.343Z,79.45
2022-11-16T10:01:42.205Z,78.53
2022-11-16T10:04:23.682Z,79.09
2022-11-16T10:09:35.809Z,78.46
2022-11-16T10:18:23.986Z,78.72
2022-11-16T10:29:14.852Z,77.23
2022-11-16T10:32:22.438Z,76.65
2022-11-16T10:34:56.720Z,75.40
2022-11-16T10:37:31.296Z,76.16
2022-11-16T10:39:59.531Z,75.28
2022-11-16T10:42:36.909Z,75.19
2022-11-16T10:48:16.270Z,75.14
2022-11-16T10:50:48.477Z,75.56
2022-11-16T10:53:26.242Z,75.95
2022-11-16T10:56:19.793Z,76.45
2022-11-16T11:01:37.801Z,75.37
2022-11-16T11:04:25.278Z,76.50
2022-11-16T11:09:39.019Z,76.32
2022-11-16T11:12:38.766Z,76.61
2022-11-16T11:15:27.553Z,76.97
2022-11-16T11:21:19.387Z,74.31
2022-11-16T11:23:52.335Z,75.40
2022-11-16T11:26:39.372Z,75.60
2022-11-16T11:29:31.192Z,75.15
2022-11-16T11:32:06.082Z,76.76
2022-11-16T11:34:47.921Z,75.78
2022-11-16T11:37:21.925Z,76.24
2022-11-16T11:40:05.270Z,75.91
2022-11-16T11:42:33.438Z,75.78
2022-11-16T11:45:09.492Z,75.19
2022-11-16T11:48:00.915Z,75.31
2022-11-16T11:50:53.692Z,74.25
2022-11-16T11:56:21.315Z,73.55
2022-11-16T11:58:50.440Z,73.42
2022-11-16T12:10:31.886Z,75.51
2022-11-16T12:26:57.113Z,77.51
2022-11-16T12:29:27.724Z,76.82
2022-11-16T12:37:21.605Z,78.32
2022-11-16T13:05:21.175Z,76.31
2022-11-16T13:07:56.327Z,77.72
2022-11-16T13:10:28.655Z,79.61
2022-11-16T13:15:54.352Z,80.39
2022-11-16T13:18:25.003Z,80.11
2022-11-16T13:26:24.847Z,80.29
2022-11-16T13:31:39.313Z,79.69
2022-11-16T13:34:14.983Z,79.69
2022-11-16T13:36:45.647Z,80.53
2022-11-16T13:39:22.023Z,80.73
2022-11-16T13:42:06.119Z,80.32
2022-11-16T13:44:35.249Z,80.94
2022-11-16T13:47:07.561Z,81.04
2022-11-16T13:49:42.198Z,81.06
2022-11-16T13:52:48.259Z,81.07
2022-11-16T13:55:15.883Z,81.18
2022-11-16T13:57:54.551Z,80.97
2022-11-16T14:00:39.553Z,80.50
2022-11-16T14:03:31.823Z,80.92
2022-11-16T14:06:00.434Z,81.47
2022-11-16T14:11:25.754Z,81.47
2022-11-16T14:13:56.812Z,80.79
2022-11-16T14:19:06.285Z,81.65
2022-11-16T14:32:54.579Z,81.33
2022-11-16T14:35:47.566Z,81.42
2022-11-16T14:38:31.286Z,81.82
2022-11-16T14:41:03.157Z,81.38
2022-11-16T14:43:41.689Z,81.39
2022-11-16T14:49:16.167Z,81.95
2022-11-16T14:51:49.675Z,82.16
2022-11-16T14:57:01.850Z,81.24
2022-11-16T14:59:32.231Z,81.53
2022-11-16T15:02:13.522Z,82.93
2022-11-16T15:04:45.174Z,83.16
2022-11-16T15:07:24.105Z,83.11
2022-11-16T15:10:00.130Z,82.88
2022-11-16T15:12:42.631Z,82.84
2022-11-16T15:18:07.612Z,82.55
2022-11-16T15:20:42.531Z,82.38
2022-11-16T15:23:15.561Z,82.31
2022-11-16T15:25:47.791Z,81.46
2022-11-16T15:28:22.845Z,81.87
2022-11-16T15:31:19.711Z,82.05
2022-11-16T15:34:09.656Z,81.30
2022-11-16T15:36:41.938Z,82.01
2022-11-16T15:39:19.842Z,82.16
2022-11-16T15:42:02.189Z,82.07
2022-11-16T15:44:37.403Z,82.15
2022-11-16T15:47:13.396Z,82.22
2022-11-16T15:49:54.352Z,82.12
2022-11-16T15:52:44.430Z,81.77
2022-11-16T15:58:15.446Z,81.68
2022-11-16T16:00:53.107Z,82.08
2022-11-16T16:03:38.921Z,82.10
2022-11-16T16:06:57.657Z,82.35
2022-11-16T16:09:55.633Z,82.33
2022-11-16T16:12:51.917Z,82.01
2022-11-16T16:18:50.286Z,81.99
2022-11-16T16:22:04.073Z,82.16
2022-11-16T16:27:47.013Z,82.13
2022-11-16T16:31:00.276Z,81.14
2022-11-16T16:33:59.921Z,81.42
2022-11-16T16:36:37.364Z,82.13
2022-11-16T16:39:38.521Z,82.59
2022-11-16T17:18:42.874Z,84.19
2022-11-16T17:29:22.092Z,82.41
2022-11-16T17:32:40.335Z,82.62
2022-11-16T17:36:23.878Z,82.48
2022-11-16T17:53:55.925Z,82.45
2022-11-16T18:04:51.723Z,81.95
2022-11-16T18:08:38.519Z,83.35
2022-11-16T18:11:46.487Z,83.97
2022-11-16T18:15:29.525Z,83.87
2022-11-16T18:18:59.024Z,83.32
2022-11-16T18:32:08.702Z,83.28
2022-11-16T18:36:09.944Z,81.58
2022-11-16T18:48:07.651Z,83.91
